Time;durP1;ratioP1;P1;durP2;ratioP2;P2;SDS_P1;SDS_P2;PMS_P1;PMS_P2;Temp;Humidity;BMP_temperature;BMP_pressure;BME280_temperature;BME280_humidity;BME280_pressure;Samples;Min_cycle;Max_cycle;Signal;HPM_P1;HPM_P2
2023/03/09 00:00:39;;;;;;;8.30;6.40;;;5.40;78.30;;;;;;4933137;29;20043;-84
2023/03/09 00:03:05;;;;;;;7.88;6.00;;;5.30;78.30;;;;;;4901999;29;20063;-82
2023/03/09 00:05:30;;;;;;;8.35;5.97;;;5.30;78.30;;;;;;4917872;29;20039;-83
2023/03/09 00:07:56;;;;;;;7.88;6.13;;;5.30;78.30;;;;;;4901131;29;20045;-83
2023/03/09 00:10:22;;;;;;;8.55;6.72;;;5.30;78.30;;;;;;4901114;29;20032;-83
2023/03/09 00:12:48;;;;;;;8.88;6.28;;;5.30;78.30;;;;;;4917533;29;20123;-83
2023/03/09 00:15:14;;;;;;;8.35;6.28;;;5.30;78.30;;;;;;4932872;29;20062;-83
2023/03/09 00:17:43;;;;;;;8.43;6.40;;;5.30;78.30;;;;;;4916998;29;20036;-83
2023/03/09 00:20:19;;;;;;;8.88;6.68;;;5.30;78.30;;;;;;4917816;29;20470;-83
2023/03/09 00:22:50;;;;;;;8.57;6.35;;;5.30;78.40;;;;;;4899943;29;20032;-83
2023/03/09 00:25:17;;;;;;;9.25;6.75;;;5.30;78.40;;;;;;4916463;29;20039;-83
2023/03/09 00:27:46;;;;;;;8.45;6.32;;;5.30;78.40;;;;;;4932568;29;20469;-83
2023/03/09 00:30:13;;;;;;;8.95;6.80;;;5.30;78.40;;;;;;4932753;29;20032;-82
2023/03/09 00:32:39;;;;;;;9.32;7.22;;;5.30;78.30;;;;;;4932769;29;20035;-83
2023/03/09 00:35:05;;;;;;;9.52;7.18;;;5.30;78.30;;;;;;4916827;29;20052;-83
2023/03/09 00:37:31;;;;;;;9.38;7.20;;;5.30;78.30;;;;;;4901338;29;20052;-83
2023/03/09 00:39:57;;;;;;;9.80;7.38;;;5.30;78.40;;;;;;4916449;29;20516;-83
2023/03/09 00:42:23;;;;;;;8.63;6.70;;;5.30;78.30;;;;;;4916732;29;20025;-83
2023/03/09 00:44:50;;;;;;;9.63;7.45;;;5.20;78.30;;;;;;4916306;29;20048;-83
2023/03/09 00:47:17;;;;;;;9.95;7.47;;;5.20;78.30;;;;;;4900674;29;20516;-82
2023/03/09 00:49:43;;;;;;;8.48;6.07;;;5.20;78.30;;;;;;4932092;29;20039;-83
2023/03/09 00:52:08;;;;;;;9.80;7.18;;;5.20;78.30;;;;;;4917550;29;20036;-82
2023/03/09 00:54:34;;;;;;;9.05;7.30;;;5.20;78.30;;;;;;4916535;29;20072;-82
2023/03/09 00:57:01;;;;;;;9.45;6.88;;;5.20;78.30;;;;;;4916354;29;20180;-83
2023/03/09 00:59:28;;;;;;;9.90;7.30;;;5.20;78.30;;;;;;4916000;29;20469;-83
2023/03/09 01:01:54;;;;;;;9.50;7.53;;;5.20;78.30;;;;;;4917549;29;20533;-83
2023/03/09 01:04:20;;;;;;;9.40;6.97;;;5.20;78.30;;;;;;4917356;29;20063;-83
2023/03/09 01:06:46;;;;;;;10.32;7.50;;;5.20;78.30;;;;;;4901484;29;20135;-83
2023/03/09 01:09:12;;;;;;;10.90;7.97;;;5.20;78.30;;;;;;4917573;29;20374;-82
2023/03/09 01:11:38;;;;;;;9.48;7.43;;;5.20;78.30;;;;;;4919801;29;20161;-82
2023/03/09 01:14:04;;;;;;;10.15;7.57;;;5.20;78.30;;;;;;4919930;29;20131;-81
2023/03/09 01:16:30;;;;;;;10.60;7.78;;;5.20;78.30;;;;;;4921086;29;20032;-83
2023/03/09 01:18:56;;;;;;;9.27;6.75;;;5.20;78.30;;;;;;4904462;29;20035;-83
2023/03/09 01:21:21;;;;;;;10.40;7.60;;;5.20;78.40;;;;;;4935886;29;20504;-82
2023/03/09 01:23:47;;;;;;;9.95;7.13;;;5.20;78.40;;;;;;4919921;29;20032;-83
2023/03/09 01:26:13;;;;;;;10.88;7.57;;;5.10;78.30;;;;;;4903911;29;20047;-82
2023/03/09 01:28:39;;;;;;;10.43;7.47;;;5.10;78.30;;;;;;4903781;29;20116;-83
2023/03/09 01:31:10;;;;;;;10.25;7.22;;;5.20;78.40;;;;;;4919741;29;20047;-83
2023/03/09 01:33:38;;;;;;;10.57;7.35;;;5.20;78.40;;;;;;4904099;29;20055;-83
2023/03/09 01:36:06;;;;;;;10.02;8.00;;;5.20;78.40;;;;;;4919849;29;20032;-83
2023/03/09 01:38:33;;;;;;;11.13;7.85;;;5.10;78.30;;;;;;4919036;29;20052;-83
2023/03/09 01:40:59;;;;;;;10.10;7.47;;;5.10;78.40;;;;;;4935469;29;20024;-83
2023/03/09 01:43:31;;;;;;;9.90;7.10;;;5.10;78.40;;;;;;4888237;29;20024;-83
2023/03/09 01:46:24;;;;;;;10.73;7.70;;;5.10;78.40;;;;;;4904397;29;20362;-83
2023/03/09 01:49:14;;;;;;;11.05;7.80;;;5.20;78.50;;;;;;4903520;29;20032;-82
2023/03/09 01:52:25;;;;;;;10.50;7.50;;;5.10;78.40;;;;;;4919644;29;20055;-83
2023/03/09 01:54:58;;;;;;;9.98;7.22;;;5.10;78.40;;;;;;4877140;29;20047;-83
2023/03/09 01:57:42;;;;;;;10.60;7.45;;;5.10;78.40;;;;;;4903442;29;20032;-83
2023/03/09 02:00:24;;;;;;;9.98;7.57;;;5.10;78.40;;;;;;4888049;29;20055;-82
2023/03/09 02:03:18;;;;;;;11.02;7.50;;;5.10;78.40;;;;;;4903615;29;20177;-82
2023/03/09 02:05:53;;;;;;;9.60;7.15;;;5.10;78.40;;;;;;4888159;29;20133;-83
2023/03/09 02:08:20;;;;;;;;;;;5.10;78.40;;;;;;4935539;29;20100;-83
2023/03/09 02:10:55;;;;;;;9.65;6.75;;;5.00;78.20;;;;;;4903238;29;19917;-83
2023/03/09 02:13:25;;;;;;;9.88;7.00;;;5.00;78.20;;;;;;4919919;29;20036;-83
2023/03/09 02:15:51;;;;;;;8.93;6.55;;;5.10;78.30;;;;;;4888087;29;20056;-83
2023/03/09 02:18:17;;;;;;;9.65;7.13;;;5.00;78.30;;;;;;4919311;29;20032;-83
2023/03/09 02:20:51;;;;;;;9.88;7.47;;;5.00;78.30;;;;;;4903015;29;20028;-83
2023/03/09 02:23:50;;;;;;;10.73;7.80;;;5.00;78.40;;;;;;4936003;29;20036;-82
2023/03/09 02:26:31;;;;;;;9.95;7.35;;;5.00;78.40;;;;;;4935826;29;20052;-83
2023/03/09 02:28:58;;;;;;;11.10;7.88;;;5.00;78.40;;;;;;4919161;29;20032;-83
2023/03/09 02:31:24;;;;;;;11.18;7.50;;;5.00;78.40;;;;;;4921266;29;20036;-83
2023/03/09 02:33:50;;;;;;;9.52;6.88;;;5.00;78.40;;;;;;4921288;29;20076;-83
2023/03/09 02:36:16;;;;;;;10.80;7.82;;;5.00;78.40;;;;;;4919886;29;20039;-82
2023/03/09 02:38:45;;;;;;;10.52;7.55;;;5.00;78.40;;;;;;4919659;29;20197;-82
2023/03/09 02:41:12;;;;;;;10.80;7.35;;;5.00;78.70;;;;;;4903699;29;20497;-83
2023/03/09 02:44:05;;;;;;;10.25;7.38;;;5.00;78.40;;;;;;4935003;29;20082;-83
2023/03/09 02:46:32;;;;;;;10.55;7.53;;;5.00;78.40;;;;;;4886235;29;20067;-82
2023/03/09 02:48:58;;;;;;;9.90;7.18;;;5.00;78.30;;;;;;4902742;29;20039;-82
2023/03/09 02:51:25;;;;;;;9.60;6.95;;;5.00;78.40;;;;;;4919089;29;20044;-83
2023/03/09 02:53:50;;;;;;;9.48;7.28;;;5.00;78.40;;;;;;4918820;29;20037;-82
2023/03/09 02:56:16;;;;;;;10.02;7.18;;;5.00;78.40;;;;;;4918256;29;20035;-83
2023/03/09 02:58:42;;;;;;;11.18;7.90;;;5.00;78.40;;;;;;4918535;29;20035;-82
2023/03/09 03:01:08;;;;;;;10.70;7.43;;;5.00;78.40;;;;;;4918338;29;20063;-82
2023/03/09 03:03:34;;;;;;;10.50;7.30;;;5.00;78.40;;;;;;4902694;29;20029;-82
2023/03/09 03:05:59;;;;;;;10.25;7.43;;;5.00;78.40;;;;;;4918148;29;20063;-82
2023/03/09 03:08:25;;;;;;;10.15;7.43;;;5.00;78.40;;;;;;4918643;29;20035;-82
2023/03/09 03:10:51;;;;;;;10.13;7.47;;;5.00;78.40;;;;;;4934274;29;20039;-82
2023/03/09 03:13:17;;;;;;;11.18;7.55;;;5.00;78.40;;;;;;4918127;29;20060;-81
2023/03/09 03:15:43;;;;;;;10.50;7.70;;;5.00;78.40;;;;;;4918150;29;20036;-82
2023/03/09 03:18:09;;;;;;;9.95;7.15;;;5.00;78.40;;;;;;4902577;29;20020;-82
2023/03/09 03:20:34;;;;;;;11.38;7.93;;;5.00;78.40;;;;;;4902180;29;20044;-82
2023/03/09 03:23:00;;;;;;;10.27;7.10;;;5.00;78.40;;;;;;4901619;29;20032;-83
2023/03/09 03:25:36;;;;;;;10.52;7.35;;;5.00;78.40;;;;;;4917517;29;20044;-83
2023/03/09 03:28:03;;;;;;;10.05;7.43;;;5.00;78.40;;;;;;4902053;29;20036;-82
2023/03/09 03:30:29;;;;;;;10.93;8.20;;;5.00;78.40;;;;;;4917486;29;20605;-82
2023/03/09 03:32:56;;;;;;;11.05;7.85;;;5.00;78.40;;;;;;4933638;29;20115;-82
2023/03/09 03:35:27;;;;;;;9.98;7.28;;;5.00;78.40;;;;;;4902730;29;20036;-82
2023/03/09 03:37:54;;;;;;;10.52;7.60;;;4.90;78.30;;;;;;4916935;29;20138;-81
2023/03/09 03:40:21;;;;;;;11.10;7.40;;;5.00;78.40;;;;;;4901605;29;20039;-83
2023/03/09 03:42:49;;;;;;;11.10;7.95;;;5.00;78.40;;;;;;4933247;29;20071;-82
2023/03/09 03:45:16;;;;;;;10.98;7.68;;;5.00;78.40;;;;;;4902312;29;20038;-83
2023/03/09 03:47:42;;;;;;;11.32;8.50;;;5.00;78.40;;;;;;4917157;29;20119;-82
2023/03/09 03:50:08;;;;;;;10.45;7.47;;;5.00;78.40;;;;;;4901428;29;20429;-82
2023/03/09 03:52:42;;;;;;;10.50;7.88;;;5.00;78.40;;;;;;4916481;29;20028;-83
2023/03/09 03:55:08;;;;;;;10.10;7.32;;;4.90;78.40;;;;;;4902060;29;20373;-82
2023/03/09 03:57:34;;;;;;;10.98;7.50;;;5.00;78.40;;;;;;4901195;29;20254;-83
2023/03/09 04:00:01;;;;;;;10.35;7.78;;;4.90;78.40;;;;;;4902064;29;20036;-83
2023/03/09 04:02:26;;;;;;;11.07;7.88;;;5.00;78.50;;;;;;4901169;29;20032;-83
2023/03/09 04:04:52;;;;;;;10.10;7.03;;;4.90;78.40;;;;;;4901345;29;20067;-83
2023/03/09 04:07:18;;;;;;;9.80;7.25;;;5.00;78.50;;;;;;4901984;29;20492;-83
2023/03/09 04:09:44;;;;;;;10.45;7.07;;;4.90;78.40;;;;;;4917018;29;20116;-83
2023/03/09 04:12:10;;;;;;;10.35;7.63;;;4.90;78.40;;;;;;4901352;29;20055;-83
2023/03/09 04:14:39;;;;;;;10.32;7.72;;;4.90;78.40;;;;;;4916561;29;20047;-83
2023/03/09 04:17:08;;;;;;;9.63;7.25;;;4.90;78.40;;;;;;4917347;29;20036;-82
2023/03/09 04:19:34;;;;;;;10.93;7.57;;;4.90;78.40;;;;;;4916893;29;20052;-83
2023/03/09 04:21:59;;;;;;;11.50;8.25;;;4.90;78.40;;;;;;4916955;29;20024;-84
2023/03/09 04:24:25;;;;;;;10.15;6.95;;;5.00;78.40;;;;;;4932684;29;20477;-83
2023/03/09 04:26:51;;;;;;;10.60;6.97;;;4.90;78.30;;;;;;4901122;29;20052;-83
2023/03/09 04:29:36;;;;;;;10.07;7.10;;;4.90;78.30;;;;;;4917023;29;20132;-82
2023/03/09 04:32:02;;;;;;;11.30;7.70;;;4.90;78.30;;;;;;4918220;29;20032;-82
2023/03/09 04:34:29;;;;;;;9.80;7.00;;;4.90;78.30;;;;;;4900855;29;20036;-82
2023/03/09 04:36:55;;;;;;;10.95;7.30;;;4.90;78.40;;;;;;4900146;29;20127;-82
2023/03/09 04:39:22;;;;;;;10.95;8.05;;;4.90;78.40;;;;;;4885640;29;20130;-83
2023/03/09 04:41:48;;;;;;;10.02;6.97;;;4.90;78.40;;;;;;4916608;29;20091;-83
2023/03/09 04:44:15;;;;;;;9.32;6.53;;;4.90;78.40;;;;;;4934186;29;20126;-84
2023/03/09 04:46:42;;;;;;;9.55;6.90;;;4.90;78.30;;;;;;4920427;29;20032;-81
2023/03/09 04:49:10;;;;;;;10.85;7.38;;;4.90;78.40;;;;;;4919875;29;20036;-83
2023/03/09 04:51:39;;;;;;;10.65;8.00;;;4.90;78.40;;;;;;4904973;29;20028;-83
2023/03/09 04:54:05;;;;;;;9.85;7.35;;;4.90;78.40;;;;;;4904849;29;20378;-83
2023/03/09 04:56:31;;;;;;;10.85;7.68;;;4.90;78.40;;;;;;4904825;29;20111;-82
2023/03/09 04:59:03;;;;;;;9.85;7.28;;;4.90;78.40;;;;;;4920251;29;20036;-83
2023/03/09 05:01:29;;;;;;;10.57;7.38;;;4.90;78.40;;;;;;4920822;29;20123;-82
2023/03/09 05:03:57;;;;;;;10.55;7.35;;;4.90;78.40;;;;;;4904652;29;20036;-83
2023/03/09 05:06:24;;;;;;;10.23;7.07;;;4.90;78.40;;;;;;4905227;29;20422;-82
2023/03/09 05:08:51;;;;;;;10.77;7.55;;;4.90;78.40;;;;;;4904803;29;20042;-82
2023/03/09 05:11:17;;;;;;;11.65;8.18;;;4.90;78.40;;;;;;4904470;29;20036;-82
2023/03/09 05:13:44;;;;;;;10.63;7.22;;;4.90;78.40;;;;;;4919851;29;20409;-81
2023/03/09 05:16:14;;;;;;;11.05;7.97;;;4.90;78.40;;;;;;4919675;29;20039;-83
2023/03/09 05:18:43;;;;;;;11.73;8.10;;;4.90;78.30;;;;;;4904099;29;20059;-82
2023/03/09 05:21:09;;;;;;;10.95;8.25;;;4.90;78.40;;;;;;4904770;29;20035;-83
2023/03/09 05:23:37;;;;;;;11.10;8.13;;;4.90;78.40;;;;;;4919903;29;20111;-83
2023/03/09 05:26:07;;;;;;;11.18;8.45;;;4.90;78.40;;;;;;4903563;29;20040;-83
2023/03/09 05:28:35;;;;;;;12.35;7.88;;;4.90;78.40;;;;;;4919191;29;20040;-82
2023/03/09 05:31:01;;;;;;;11.60;8.05;;;4.90;78.40;;;;;;4935568;29;20029;-82
2023/03/09 05:33:28;;;;;;;11.43;7.88;;;4.90;78.40;;;;;;4903801;29;20063;-82
2023/03/09 05:35:54;;;;;;;11.73;7.78;;;4.90;78.40;;;;;;4904079;29;20184;-83
2023/03/09 05:38:21;;;;;;;10.45;7.72;;;4.90;78.40;;;;;;4919387;29;20051;-83
2023/03/09 05:40:46;;;;;;;10.55;7.72;;;4.90;78.40;;;;;;4903764;29;20032;-83
2023/03/09 05:43:13;;;;;;;10.95;7.85;;;4.90;78.30;;;;;;4903600;29;20131;-82
2023/03/09 05:45:39;;;;;;;11.38;8.25;;;4.90;78.30;;;;;;4919332;29;20540;-82
2023/03/09 05:48:05;;;;;;;11.35;7.82;;;4.90;78.30;;;;;;4903552;29;20040;-84
2023/03/09 05:50:31;;;;;;;11.45;7.55;;;4.90;78.40;;;;;;4888276;29;20023;-84
2023/03/09 05:52:59;;;;;;;11.82;7.85;;;4.90;78.40;;;;;;4903862;29;20032;-83
2023/03/09 05:55:24;;;;;;;12.27;8.35;;;4.90;78.40;;;;;;4902463;29;20047;-84
2023/03/09 05:57:51;;;;;;;11.15;7.45;;;4.90;78.40;;;;;;4903608;29;20056;-83
2023/03/09 06:00:18;;;;;;;11.57;8.05;;;4.90;78.40;;;;;;4904009;29;20035;-83
2023/03/09 06:02:52;;;;;;;10.80;7.70;;;4.90;78.40;;;;;;4903211;29;20088;-83
2023/03/09 06:05:25;;;;;;;11.93;7.95;;;4.90;78.40;;;;;;4903396;29;20131;-84
2023/03/09 06:07:52;;;;;;;11.10;8.10;;;4.90;78.40;;;;;;4902654;29;20481;-83
2023/03/09 06:10:18;;;;;;;13.10;9.23;;;4.90;78.40;;;;;;4903652;29;20029;-83
2023/03/09 06:12:44;;;;;;;10.82;7.47;;;4.90;78.40;;;;;;4902787;29;20100;-82
2023/03/09 06:15:10;;;;;;;12.77;8.40;;;4.90;78.40;;;;;;4902685;29;20127;-82
2023/03/09 06:17:38;;;;;;;12.23;8.15;;;4.90;78.40;;;;;;4902780;29;20074;-83
2023/03/09 06:20:08;;;;;;;12.63;8.23;;;4.90;78.40;;;;;;4902853;29;20020;-81
2023/03/09 06:22:44;;;;;;;12.82;9.05;;;4.90;78.40;;;;;;4902908;29;20111;-83
2023/03/09 06:25:11;;;;;;;11.05;7.72;;;4.90;78.40;;;;;;4902440;29;20036;-81
2023/03/09 06:27:37;;;;;;;12.05;8.10;;;4.90;78.50;;;;;;4886623;29;20036;-81
2023/03/09 06:30:05;;;;;;;12.05;8.25;;;4.90;78.40;;;;;;4902517;29;20032;-82
2023/03/09 06:32:34;;;;;;;11.85;8.15;;;4.90;78.50;;;;;;4918412;29;20470;-82
2023/03/09 06:35:01;;;;;;;11.98;8.05;;;4.90;79.10;;;;;;4902445;29;20072;-83
2023/03/09 06:37:27;;;;;;;13.20;8.80;;;4.90;78.40;;;;;;4917509;29;20553;-80
2023/03/09 06:39:53;;;;;;;10.77;7.80;;;4.90;78.40;;;;;;4902734;29;20083;-82
2023/03/09 06:42:20;;;;;;;12.75;8.85;;;4.90;78.40;;;;;;4903107;29;20043;-82
2023/03/09 06:44:50;;;;;;;12.30;8.10;;;4.90;78.50;;;;;;4902148;29;20114;-82
2023/03/09 06:47:16;;;;;;;12.60;8.38;;;4.90;78.40;;;;;;4917761;29;20036;-82
2023/03/09 06:49:46;;;;;;;12.35;8.50;;;4.90;78.50;;;;;;4902927;29;20115;-84
2023/03/09 06:52:15;;;;;;;11.15;7.90;;;4.90;78.50;;;;;;4902320;29;20044;-82
2023/03/09 06:54:41;;;;;;;12.07;8.00;;;4.90;78.40;;;;;;4902059;29;20063;-83
2023/03/09 06:57:27;;;;;;;12.18;9.07;;;4.90;78.40;;;;;;4915864;29;20387;-81
2023/03/09 06:59:53;;;;;;;12.23;8.73;;;4.90;78.40;;;;;;4917638;29;20123;-82
2023/03/09 07:02:18;;;;;;;10.60;7.93;;;4.90;78.40;;;;;;4901905;29;20126;-81
2023/03/09 07:04:45;;;;;;;11.43;7.97;;;4.90;78.40;;;;;;4901846;29;20047;-81
2023/03/09 07:07:12;;;;;;;11.38;7.35;;;4.90;78.50;;;;;;4901280;29;20036;-85
2023/03/09 07:09:38;;;;;;;10.63;7.45;;;4.90;78.40;;;;;;4902363;29;20036;-82
2023/03/09 07:12:04;;;;;;;12.55;8.23;;;4.90;78.50;;;;;;4917590;29;20032;-81
2023/03/09 07:14:30;;;;;;;11.30;7.85;;;4.90;78.40;;;;;;4917217;29;20194;-81
2023/03/09 07:16:56;;;;;;;11.43;8.18;;;4.90;78.40;;;;;;4917636;29;20061;-82
2023/03/09 07:19:22;;;;;;;10.68;7.97;;;4.90;78.40;;;;;;4901480;29;20040;-83
2023/03/09 07:21:48;;;;;;;10.75;7.88;;;4.90;78.50;;;;;;4917299;29;20040;-83
2023/03/09 07:24:15;;;;;;;11.20;7.88;;;4.90;78.50;;;;;;4901767;29;20119;-84
2023/03/09 07:26:40;;;;;;;10.63;7.35;;;4.90;78.50;;;;;;4886249;29;20035;-84
2023/03/09 07:29:07;;;;;;;10.43;7.00;;;4.90;78.40;;;;;;4917696;29;20028;-83
2023/03/09 07:31:33;;;;;;;10.95;7.38;;;4.90;78.40;;;;;;4901399;29;20043;-82
2023/03/09 07:33:59;;;;;;;10.07;7.05;;;4.80;78.40;;;;;;4917888;29;20055;-83
2023/03/09 07:36:25;;;;;;;11.25;7.55;;;4.90;78.40;;;;;;4917485;29;20036;-83
2023/03/09 07:38:51;;;;;;;10.35;7.57;;;4.90;78.40;;;;;;4917265;29;20067;-82
2023/03/09 07:41:18;;;;;;;10.63;7.43;;;4.90;78.40;;;;;;4901735;29;20066;-83
2023/03/09 07:43:44;;;;;;;12.45;8.85;;;4.90;78.40;;;;;;4917291;29;20111;-82
2023/03/09 07:46:19;;;;;;;11.27;8.05;;;4.90;78.40;;;;;;4918797;29;20032;-83
2023/03/09 07:48:45;;;;;;;10.88;7.80;;;4.90;78.30;;;;;;4901515;29;20623;-83
2023/03/09 07:51:12;;;;;;;11.68;8.00;;;4.90;78.30;;;;;;4901740;29;20032;-83
2023/03/09 07:53:39;;;;;;;9.98;7.22;;;4.90;78.40;;;;;;4917352;29;20040;-83
2023/03/09 07:56:07;;;;;;;10.73;7.25;;;4.90;78.40;;;;;;4901314;29;20032;-84
2023/03/09 07:58:35;;;;;;;11.70;8.00;;;4.90;78.40;;;;;;4932942;29;20027;-83
2023/03/09 08:01:02;;;;;;;10.25;7.32;;;4.90;78.40;;;;;;4917273;29;20373;-83
2023/03/09 08:03:29;;;;;;;11.05;7.82;;;5.00;78.40;;;;;;4917102;29;20035;-83
2023/03/09 08:05:55;;;;;;;9.90;6.88;;;4.90;78.40;;;;;;4901305;29;20032;-83
2023/03/09 08:08:28;;;;;;;11.18;7.95;;;5.00;78.40;;;;;;4901170;29;20034;-84
2023/03/09 08:10:54;;;;;;;10.50;7.22;;;5.00;78.50;;;;;;4901472;29;20032;-83
2023/03/09 08:13:21;;;;;;;12.15;8.32;;;5.00;78.40;;;;;;4901098;29;20028;-84
2023/03/09 08:15:51;;;;;;;10.85;7.57;;;5.00;78.40;;;;;;4901395;29;20202;-84
2023/03/09 08:18:18;;;;;;;10.27;7.50;;;5.00;78.40;;;;;;4932105;29;20036;-83
2023/03/09 08:20:44;;;;;;;10.63;7.32;;;5.00;78.40;;;;;;4885498;29;20032;-84
2023/03/09 08:23:11;;;;;;;11.77;7.90;;;5.00;78.40;;;;;;4932664;29;20132;-83
2023/03/09 08:25:37;;;;;;;12.63;8.38;;;5.00;78.40;;;;;;4885524;29;20024;-84
2023/03/09 08:28:04;;;;;;;11.07;7.65;;;5.00;78.40;;;;;;4901252;29;20396;-83
2023/03/09 08:30:30;;;;;;;11.45;7.45;;;5.00;78.40;;;;;;4916720;29;20091;-83
2023/03/09 08:32:57;;;;;;;9.45;7.18;;;5.00;78.40;;;;;;4901241;29;20059;-84
2023/03/09 08:35:27;;;;;;;11.38;7.55;;;5.10;78.40;;;;;;4901106;29;20051;-85
2023/03/09 08:37:53;;;;;;;10.70;7.53;;;5.10;78.40;;;;;;4916992;29;20051;-83
2023/03/09 08:40:19;;;;;;;11.93;7.97;;;5.10;78.40;;;;;;4917494;29;20037;-83
2023/03/09 08:42:45;;;;;;;11.07;8.18;;;5.10;79.10;;;;;;4900899;29;20040;-83
2023/03/09 08:45:12;;;;;;;10.75;7.88;;;5.10;78.40;;;;;;4917360;29;20350;-83
2023/03/09 08:47:38;;;;;;;11.88;8.43;;;5.10;78.40;;;;;;4932486;29;20036;-83
2023/03/09 08:50:05;;;;;;;11.45;7.53;;;5.10;78.40;;;;;;4916256;29;20028;-83
2023/03/09 08:52:36;;;;;;;11.48;7.72;;;5.20;78.50;;;;;;4932107;29;20060;-83
2023/03/09 08:55:06;;;;;;;11.15;8.00;;;5.10;78.40;;;;;;4885291;29;20560;-82
2023/03/09 08:57:32;;;;;;;10.65;7.65;;;5.20;78.40;;;;;;4916299;29;20115;-83
2023/03/09 08:59:58;;;;;;;10.77;7.35;;;5.20;78.40;;;;;;4900376;29;20047;-82
2023/03/09 09:02:24;;;;;;;10.75;7.68;;;5.20;78.40;;;;;;4932546;29;20163;-83
2023/03/09 09:04:51;;;;;;;10.73;7.80;;;5.20;78.40;;;;;;4900678;29;20025;-82
2023/03/09 09:07:17;;;;;;;10.35;7.90;;;5.20;78.40;;;;;;4900451;29;20119;-83
2023/03/09 09:09:44;;;;;;;10.70;7.35;;;5.30;78.50;;;;;;4900600;29;20492;-82
2023/03/09 09:12:10;;;;;;;11.68;7.90;;;5.20;78.40;;;;;;4916135;29;20036;-83
2023/03/09 09:14:39;;;;;;;11.35;8.20;;;5.30;78.50;;;;;;4884703;29;20071;-83
2023/03/09 09:17:08;;;;;;;10.93;7.97;;;5.30;78.40;;;;;;4900620;29;20036;-82
2023/03/09 09:19:35;;;;;;;10.75;7.35;;;5.30;78.40;;;;;;4916809;29;20429;-82
2023/03/09 09:22:02;;;;;;;11.00;7.60;;;5.40;79.00;;;;;;4917281;29;20164;-83
2023/03/09 09:24:32;;;;;;;10.27;7.32;;;5.30;78.40;;;;;;4900048;29;20090;-83
2023/03/09 09:26:58;;;;;;;11.30;7.68;;;5.40;78.40;;;;;;4916221;29;20044;-83
2023/03/09 09:29:24;;;;;;;10.35;7.45;;;5.40;78.40;;;;;;4931951;29;20032;-83
2023/03/09 09:31:49;;;;;;;10.63;7.95;;;5.40;78.40;;;;;;4904024;29;20108;-83
2023/03/09 09:34:18;;;;;;;11.20;7.82;;;5.40;78.40;;;;;;4919508;29;20433;-83
2023/03/09 09:36:44;;;;;;;10.80;7.55;;;5.40;78.30;;;;;;4920561;29;20036;-82
2023/03/09 09:39:12;;;;;;;11.73;8.07;;;5.50;78.40;;;;;;4920431;29;20056;-83
2023/03/09 09:41:40;;;;;;;11.80;7.68;;;5.50;78.40;;;;;;4935033;29;20061;-82
2023/03/09 09:44:13;;;;;;;10.30;7.05;;;5.50;78.40;;;;;;4919317;29;20055;-83
2023/03/09 09:46:40;;;;;;;10.13;7.10;;;5.50;78.40;;;;;;4919050;29;20111;-82
2023/03/09 09:49:09;;;;;;;9.65;7.35;;;5.60;78.40;;;;;;4918795;29;20044;-85
2023/03/09 09:51:53;;;;;;;10.90;7.57;;;5.60;78.40;;;;;;4919698;29;20127;-83
2023/03/09 09:54:38;;;;;;;11.15;7.82;;;5.60;78.40;;;;;;4919296;29;20482;-83
2023/03/09 09:57:28;;;;;;;10.35;7.28;;;5.60;78.30;;;;;;4920373;29;20065;-83
2023/03/09 10:00:06;;;;;;;9.57;6.93;;;5.60;78.30;;;;;;4903153;29;20123;-82
2023/03/09 10:03:00;;;;;;;10.73;7.47;;;5.70;78.30;;;;;;4934053;29;20107;-81
2023/03/09 10:05:43;;;;;;;9.80;7.05;;;5.70;78.30;;;;;;4919989;29;20389;-81
2023/03/09 10:08:19;;;;;;;11.10;7.28;;;5.70;78.40;;;;;;4919803;29;20099;-82
2023/03/09 10:10:45;;;;;;;10.25;7.00;;;5.70;78.40;;;;;;4935415;29;20063;-86
2023/03/09 10:13:16;;;;;;;10.88;7.57;;;5.70;78.30;;;;;;4919440;29;20139;-86
2023/03/09 10:15:44;;;;;;;10.15;7.13;;;5.70;78.30;;;;;;4919368;29;20473;-85
2023/03/09 10:18:18;;;;;;;9.68;6.28;;;5.80;78.40;;;;;;4921808;29;20028;-86
2023/03/09 10:20:49;;;;;;;10.90;7.38;;;5.70;78.30;;;;;;4922114;29;20032;-87
2023/03/09 10:23:32;;;;;;;9.63;6.75;;;5.80;78.30;;;;;;4922698;29;20035;-86
2023/03/09 10:26:07;;;;;;;10.27;7.22;;;5.90;78.30;;;;;;4903861;29;20032;-86
2023/03/09 10:28:41;;;;;;;10.10;6.82;;;5.90;78.30;;;;;;4888249;29;20119;-86
2023/03/09 10:31:22;;;;;;;10.15;7.15;;;5.90;78.20;;;;;;4934855;29;20434;-86
2023/03/09 10:34:04;;;;;;;10.35;7.13;;;5.90;78.20;;;;;;4903212;29;20040;-86
2023/03/09 10:36:32;;;;;;;10.13;6.85;;;5.90;78.20;;;;;;4920338;29;20024;-86
2023/03/09 10:39:12;;;;;;;11.00;7.03;;;5.90;78.20;;;;;;4918492;29;20072;-85
2023/03/09 10:41:40;;;;;;;10.98;7.28;;;5.90;78.20;;;;;;4918896;29;20071;-88
2023/03/09 10:44:06;;;;;;;9.98;7.05;;;5.90;78.20;;;;;;4902824;29;20028;-87
2023/03/09 10:46:51;;;;;;;11.20;6.70;;;6.00;78.20;;;;;;4903071;29;20051;-87
2023/03/09 10:49:17;;;;;;;11.50;8.20;;;6.00;78.20;;;;;;4887433;29;20039;-88
2023/03/09 10:51:53;;;;;;;9.18;6.95;;;6.10;78.20;;;;;;4918977;29;20055;-87
2023/03/09 10:54:19;;;;;;;9.70;7.05;;;6.00;78.10;;;;;;4934596;29;20095;-87
2023/03/09 10:56:45;;;;;;;10.57;7.45;;;6.10;78.10;;;;;;4919844;29;20032;-88
2023/03/09 10:59:13;;;;;;;9.48;6.78;;;6.10;78.20;;;;;;4903280;29;20020;-87
2023/03/09 11:01:42;;;;;;;10.95;7.43;;;6.10;78.10;;;;;;4902725;29;20083;-85
2023/03/09 11:04:32;;;;;;;10.70;7.35;;;6.10;78.10;;;;;;4933963;29;20488;-84
2023/03/09 11:07:04;;;;;;;10.60;7.10;;;6.10;78.20;;;;;;4902381;29;20032;-84
2023/03/09 11:09:42;;;;;;;10.18;7.05;;;6.20;78.10;;;;;;4934098;29;20541;-84
2023/03/09 11:12:17;;;;;;;10.55;7.47;;;6.20;78.10;;;;;;4918037;29;20473;-84
2023/03/09 11:14:51;;;;;;;10.32;6.72;;;6.20;78.10;;;;;;4918166;29;20495;-84
2023/03/09 11:17:40;;;;;;;10.00;6.85;;;6.20;78.10;;;;;;4902374;29;20048;-83
2023/03/09 11:20:12;;;;;;;10.25;7.47;;;6.20;78.80;;;;;;4902231;29;20036;-85
2023/03/09 11:23:00;;;;;;;12.00;7.32;;;6.20;78.10;;;;;;4933817;29;20071;-84
2023/03/09 11:25:57;;;;;;;11.90;7.40;;;6.20;78.10;;;;;;4933855;29;20032;-85
2023/03/09 11:28:32;;;;;;;10.88;7.25;;;6.30;78.20;;;;;;4934558;29;20032;-85
2023/03/09 11:31:00;;;;;;;11.23;7.47;;;6.30;78.20;;;;;;4933828;29;20529;-85
2023/03/09 11:33:29;;;;;;;10.00;6.95;;;6.30;78.10;;;;;;4901398;29;20036;-84
2023/03/09 11:35:55;;;;;;;11.43;7.75;;;6.30;78.10;;;;;;4901789;29;20040;-84
2023/03/09 11:38:25;;;;;;;11.02;7.30;;;6.30;78.10;;;;;;4917198;29;20059;-85
2023/03/09 11:41:04;;;;;;;11.43;7.32;;;6.30;78.10;;;;;;4901519;29;20042;-84
2023/03/09 11:43:36;;;;;;;10.60;6.93;;;6.40;78.20;;;;;;4917982;29;20024;-84
2023/03/09 11:46:06;;;;;;;11.63;7.32;;;6.40;78.10;;;;;;4918053;29;20020;-84
2023/03/09 11:48:53;;;;;;;9.98;6.85;;;6.40;78.10;;;;;;4933252;29;20020;-84
2023/03/09 11:51:35;;;;;;;11.00;7.20;;;6.40;78.20;;;;;;4917584;29;20469;-83
2023/03/09 11:54:28;;;;;;;10.07;6.82;;;6.40;78.10;;;;;;4918788;29;20083;-84
2023/03/09 11:56:55;;;;;;;10.68;6.97;;;6.40;78.10;;;;;;4918869;29;20020;-83
2023/03/09 11:59:32;;;;;;;11.32;7.25;;;6.50;78.10;;;;;;4886006;29;20108;-82
2023/03/09 12:02:25;;;;;;;10.30;7.03;;;6.50;78.10;;;;;;4917930;29;20032;-88
2023/03/09 12:04:53;;;;;;;9.82;6.95;;;6.50;78.10;;;;;;4902119;29;20036;-83
2023/03/09 12:07:34;;;;;;;10.65;7.25;;;6.50;78.10;;;;;;4901301;29;20056;-83
2023/03/09 12:10:00;;;;;;;10.80;7.15;;;6.50;78.10;;;;;;4917210;29;20046;-86
2023/03/09 12:12:53;;;;;;;10.73;7.22;;;6.50;78.10;;;;;;4918129;29;20489;-85
2023/03/09 12:15:45;;;;;;;10.88;7.68;;;6.60;78.20;;;;;;4934966;29;20032;-84
2023/03/09 12:18:40;;;;;;;10.35;6.80;;;6.60;78.10;;;;;;4919791;29;20036;-84
2023/03/09 12:21:09;;;;;;;10.00;6.55;;;6.60;78.10;;;;;;4918247;29;20028;-84
2023/03/09 12:23:35;;;;;;;10.98;7.28;;;6.60;78.00;;;;;;4933983;29;20047;-84
2023/03/09 12:26:04;;;;;;;11.35;7.25;;;6.60;78.00;;;;;;4933158;29;20032;-85
2023/03/09 12:28:30;;;;;;;10.60;7.03;;;6.60;78.00;;;;;;4918697;29;20043;-85
2023/03/09 12:30:57;;;;;;;10.65;7.32;;;6.60;78.00;;;;;;4901321;29;20034;-84
2023/03/09 12:33:41;;;;;;;11.18;7.18;;;6.60;78.00;;;;;;4901588;29;20182;-84
2023/03/09 12:36:29;;;;;;;10.90;7.85;;;6.70;78.10;;;;;;4917211;29;20107;-84
2023/03/09 12:39:26;;;;;;;10.93;7.00;;;6.70;78.60;;;;;;4917252;29;20468;-85
2023/03/09 12:42:10;;;;;;;10.63;6.70;;;6.70;78.00;;;;;;4932418;29;20039;-85
2023/03/09 12:44:47;;;;;;;11.07;7.43;;;6.70;77.90;;;;;;4918144;29;20041;-84
2023/03/09 12:47:38;;;;;;;10.55;6.65;;;6.70;77.90;;;;;;4932795;29;20035;-85
2023/03/09 12:50:21;;;;;;;9.68;6.40;;;6.70;78.00;;;;;;4918570;29;20043;-85
2023/03/09 12:53:22;;;;;;;11.40;7.90;;;6.70;77.90;;;;;;4918749;29;20024;-84
2023/03/09 12:55:52;;;;;;;9.07;6.45;;;6.70;78.00;;;;;;4902639;29;20495;-84
2023/03/09 12:58:21;;;;;;;10.25;7.40;;;6.70;77.90;;;;;;4933538;29;20044;-85
2023/03/09 13:00:51;;;;;;;11.30;7.40;;;6.70;77.90;;;;;;4932715;29;20106;-84
2023/03/09 13:03:31;;;;;;;10.75;7.28;;;6.80;78.00;;;;;;4916809;29;20440;-85
2023/03/09 13:06:03;;;;;;;11.40;7.30;;;6.80;78.00;;;;;;4920236;29;20040;-84